Time;durP1;ratioP1;P1;durP2;ratioP2;P2;SDS_P1;SDS_P2;PMS_P1;PMS_P2;Temp;Humidity;BMP_temperature;BMP_pressure;BME280_temperature;BME280_humidity;BME280_pressure;Samples;Min_cycle;Max_cycle;Signal;HPM_P1;HPM_P2
2021/11/15 00:01:58;;;;;;;54.58;24.30;;;;;;;9.09;78.78;102721.78;5046169;28;20107;-40
2021/11/15 00:04:23;;;;;;;62.67;25.90;;;;;;;9.15;78.20;102721.25;5040783;28;20088;-40
2021/11/15 00:06:49;;;;;;;54.58;24.70;;;;;;;9.18;78.62;102712.94;5036124;28;20061;-40
2021/11/15 00:09:15;;;;;;;60.20;26.35;;;;;;;9.20;78.90;102714.50;5034631;28;20033;-40
2021/11/15 00:11:40;;;;;;;60.75;26.15;;;;;;;9.15;78.57;102707.81;5041563;28;20052;-40
2021/11/15 00:14:06;;;;;;;59.65;25.42;;;;;;;9.17;79.05;102706.72;5042988;28;20393;-40
2021/11/15 00:16:32;;;;;;;57.42;24.63;;;;;;;9.18;78.60;102713.78;5036900;28;20040;-40
2021/11/15 00:18:57;;;;;;;55.58;24.80;;;;;;;9.18;78.76;102713.78;5046383;28;20029;-40
2021/11/15 00:21:23;;;;;;;52.15;24.20;;;;;;;9.20;77.78;102701.09;5054283;28;20040;-40
2021/11/15 00:23:48;;;;;;;58.45;26.48;;;;;;;9.20;77.77;102714.50;5045577;28;20472;-41
2021/11/15 00:26:14;;;;;;;54.40;24.55;;;;;;;9.22;77.38;102712.56;5035116;28;20049;-40
2021/11/15 00:28:39;;;;;;;50.40;24.60;;;;;;;9.21;76.93;102715.38;5047456;28;20502;-40
2021/11/15 00:31:05;;;;;;;52.63;24.25;;;;;;;9.17;77.30;102712.09;5054880;28;20040;-41
2021/11/15 00:33:31;;;;;;;52.17;24.52;;;;;;;9.07;77.95;102712.97;5047870;28;20033;-40
2021/11/15 00:35:56;;;;;;;48.45;23.98;;;;;;;9.13;77.13;102709.78;5035354;28;20048;-41
2021/11/15 00:38:22;;;;;;;48.58;23.45;;;;;;;9.16;76.95;102709.50;5059909;28;20123;-40
2021/11/15 00:40:47;;;;;;;51.17;24.33;;;;;;;9.16;77.04;102701.44;5057166;28;20036;-41
2021/11/15 00:43:13;;;;;;;58.22;24.80;;;;;;;9.19;76.95;102703.91;5049590;28;20416;-41
2021/11/15 00:45:38;;;;;;;55.95;25.27;;;;;;;9.15;76.89;102697.91;5046824;28;20074;-40
2021/11/15 00:48:05;;;;;;;51.47;24.27;;;;;;;9.06;77.07;102687.94;5053378;28;20041;-40
2021/11/15 00:50:31;;;;;;;53.40;24.50;;;;;;;9.05;77.70;102693.44;5054939;28;20043;-40
2021/11/15 00:52:57;;;;;;;58.47;25.83;;;;;;;9.07;77.99;102692.34;5051349;28;20025;-40
2021/11/15 00:55:22;;;;;;;61.08;27.05;;;;;;;9.11;77.60;102695.59;5034909;28;20029;-40
2021/11/15 00:57:48;;;;;;;60.78;25.77;;;;;;;9.08;77.19;102685.13;5034475;28;20021;-40
2021/11/15 01:00:18;;;;;;;55.38;24.65;;;;;;;9.09;77.15;102686.84;5042473;28;20025;-40
2021/11/15 01:02:43;;;;;;;57.15;25.20;;;;;;;9.04;77.63;102684.53;5054448;28;20383;-39
2021/11/15 01:05:09;;;;;;;59.13;26.48;;;;;;;9.09;77.20;102689.53;5033643;28;20031;-40
2021/11/15 01:07:34;;;;;;;53.15;23.92;;;;;;;9.05;77.31;102688.91;5037633;28;20028;-40
2021/11/15 01:10:00;;;;;;;59.40;26.25;;;;;;;9.07;77.26;102688.81;5054075;28;20021;-40
2021/11/15 01:12:25;;;;;;;60.55;27.10;;;;;;;9.01;77.98;102688.31;5055040;28;20028;-40
2021/11/15 01:14:51;;;;;;;65.15;25.27;;;;;;;8.98;77.95;102691.28;5036349;28;20393;-40
2021/11/15 01:17:16;;;;;;;53.13;22.80;;;;;;;9.04;77.10;102692.59;5041730;28;20087;-39
2021/11/15 01:19:42;;;;;;;53.70;24.58;;;;;;;9.03;77.14;102690.91;5035454;28;20033;-40
2021/11/15 01:22:07;;;;;;;60.38;26.30;;;;;;;8.98;77.16;102683.22;5034994;28;20026;-40
2021/11/15 01:24:33;;;;;;;51.00;23.48;;;;;;;8.95;76.71;102680.78;5049296;28;20033;-40
2021/11/15 01:26:58;;;;;;;54.78;23.83;;;;;;;8.95;76.93;102686.16;5053453;28;20103;-40
2021/11/15 01:29:24;;;;;;;53.00;24.13;;;;;;;8.96;77.14;102681.63;5054721;28;20128;-40
2021/11/15 01:31:49;;;;;;;51.95;23.88;;;;;;;8.96;76.83;102677.09;5053100;28;20068;-39
2021/11/15 01:34:14;;;;;;;57.80;24.58;;;;;;;8.91;76.35;102678.47;5046046;28;20326;-39
2021/11/15 01:36:40;;;;;;;45.53;22.10;;;;;;;8.91;76.36;102678.47;5053640;28;20116;-39
2021/11/15 01:39:06;;;;;;;48.17;22.30;;;;;;;8.91;76.26;102676.63;5054759;28;20115;-40
2021/11/15 01:41:32;;;;;;;47.55;22.60;;;;;;;8.89;76.18;102673.22;5035396;28;20029;-40
2021/11/15 01:43:58;;;;;;;48.63;23.20;;;;;;;8.88;76.12;102682.25;5033938;28;20364;-40
2021/11/15 01:46:23;;;;;;;47.60;22.58;;;;;;;8.85;76.86;102679.81;5037267;28;20108;-40
2021/11/15 01:48:49;;;;;;;42.38;19.85;;;;;;;8.91;75.27;102673.94;5054031;28;20036;-40
2021/11/15 01:51:14;;;;;;;40.58;20.70;;;;;;;8.89;75.53;102675.06;5053458;28;20080;-40
2021/11/15 01:53:40;;;;;;;50.38;22.23;;;;;;;8.91;75.88;102681.16;5047032;28;20104;-41
2021/11/15 01:56:05;;;;;;;44.03;21.20;;;;;;;8.97;75.68;102677.94;5033217;28;20022;-41
2021/11/15 01:58:31;;;;;;;42.25;19.75;;;;;;;8.97;74.88;102689.53;5034522;28;20052;-40
2021/11/15 02:00:58;;;;;;;41.00;20.55;;;;;;;8.90;75.38;102683.00;5034260;28;20419;-40
2021/11/15 02:03:25;;;;;;;47.47;21.52;;;;;;;8.89;76.23;102675.91;5035169;28;20124;-40
2021/11/15 02:05:51;;;;;;;45.83;20.57;;;;;;;8.88;75.77;102682.25;5052191;28;20456;-40
2021/11/15 02:08:17;;;;;;;41.53;19.85;;;;;;;8.89;75.84;102678.59;5049030;28;20296;-41
2021/11/15 02:10:42;;;;;;;44.00;20.77;;;;;;;8.82;76.39;102680.09;5033149;28;20037;-40
2021/11/15 02:13:09;;;;;;;44.53;21.83;;;;;;;8.89;76.36;102675.06;5033752;28;20026;-40
2021/11/15 02:15:35;;;;;;;44.35;21.50;;;;;;;8.90;76.03;102676.75;5054085;28;20067;-40
2021/11/15 02:18:01;;;;;;;50.65;22.75;;;;;;;8.85;76.42;102676.28;5050954;28;20396;-41
2021/11/15 02:20:28;;;;;;;43.47;22.08;;;;;;;8.91;75.43;102676.63;5053971;28;20036;-40
2021/11/15 02:22:55;;;;;;;47.07;21.80;;;;;;;8.84;75.53;102672.72;5050887;28;20090;-41
2021/11/15 02:25:23;;;;;;;43.05;21.83;;;;;;;8.86;75.82;102681.53;5053331;28;20029;-40
2021/11/15 02:27:49;;;;;;;44.03;21.65;;;;;;;8.87;75.64;102682.38;5053675;28;20049;-41
2021/11/15 02:30:25;;;;;;;41.35;20.08;;;;;;;8.85;75.36;102674.47;5053572;28;20476;-40
2021/11/15 02:32:51;;;;;;;44.08;21.13;;;;;;;8.86;75.99;102680.69;5044082;28;20445;-40
2021/11/15 02:35:17;;;;;;;40.10;20.48;;;;;;;8.84;76.29;102678.09;5053767;28;20063;-40
2021/11/15 02:37:44;;;;;;;46.72;20.38;;;;;;;8.82;76.47;102672.03;5053590;28;20025;-40
2021/11/15 02:40:11;;;;;;;47.50;21.42;;;;;;;8.79;76.09;102670.44;5053573;28;20431;-41
2021/11/15 02:42:36;;;;;;;45.28;21.20;;;;;;;8.85;75.74;102673.63;5052066;28;20373;-40
2021/11/15 02:45:07;;;;;;;43.58;19.77;;;;;;;8.84;75.78;102666.50;5033533;28;20029;-40
2021/11/15 02:47:33;;;;;;;42.45;18.60;;;;;;;8.88;74.81;102668.84;5034583;28;21126;-40
2021/11/15 02:49:59;;;;;;;43.15;20.02;;;;;;;8.86;74.87;102662.72;5033480;28;20108;-40
2021/11/15 02:52:24;;;;;;;44.78;20.33;;;;;;;8.87;74.69;102675.16;5042407;28;20396;-40
2021/11/15 02:54:50;;;;;;;38.50;18.73;;;;;;;8.85;74.65;102673.63;5052468;28;20388;-40
2021/11/15 02:57:17;;;;;;;42.35;20.30;;;;;;;8.80;74.86;102668.63;5044998;28;20033;-40
2021/11/15 02:59:43;;;;;;;48.42;20.83;;;;;;;8.83;74.86;102672.88;5033545;28;20037;-40
2021/11/15 03:02:08;;;;;;;45.08;20.25;;;;;;;8.80;74.98;102665.94;5033209;28;20071;-41
2021/11/15 03:04:34;;;;;;;43.40;20.25;;;;;;;8.79;75.04;102673.13;5031537;28;20112;-40
2021/11/15 03:06:59;;;;;;;44.40;18.98;;;;;;;8.77;75.24;102666.19;5053055;28;20032;-40
2021/11/15 03:09:25;;;;;;;41.88;18.80;;;;;;;8.73;75.69;102664.72;5053022;28;20021;-40
2021/11/15 03:11:50;;;;;;;46.00;20.05;;;;;;;8.72;75.84;102665.69;5048936;28;20095;-40
2021/11/15 03:14:15;;;;;;;52.80;22.13;;;;;;;8.76;76.08;102667.13;5045617;28;20036;-41
2021/11/15 03:16:41;;;;;;;49.40;22.10;;;;;;;8.78;76.21;102667.88;5051200;28;20029;-41
2021/11/15 03:19:06;;;;;;;56.08;24.23;;;;;;;8.77;77.02;102666.19;5051631;28;20452;-40
2021/11/15 03:21:32;;;;;;;51.20;22.35;;;;;;;8.78;77.69;102662.50;5046950;28;20040;-41
2021/11/15 03:23:57;;;;;;;64.45;25.90;;;;;;;8.78;78.84;102659.81;5032366;28;20017;-40
2021/11/15 03:26:24;;;;;;;64.63;27.27;;;;;;;8.78;79.10;102658.00;5031994;28;20111;-40
2021/11/15 03:28:51;;;;;;;64.53;26.52;;;;;;;8.76;79.79;102667.13;5052088;28;20056;-40
2021/11/15 03:31:18;;;;;;;78.32;27.63;;;;;;;8.75;79.66;102665.44;5050528;28;20108;-40
2021/11/15 03:33:45;;;;;;;74.33;27.83;;;;;;;8.72;80.42;102660.34;5052177;28;20033;-40
2021/11/15 03:36:10;;;;;;;73.32;28.10;;;;;;;8.68;80.46;102661.56;5041329;28;20108;-40
2021/11/15 03:38:36;;;;;;;63.35;25.00;;;;;;;8.73;79.57;102662.03;5035235;28;20131;-40
2021/11/15 03:41:03;;;;;;;65.00;24.80;;;;;;;8.72;79.33;102663.03;5052115;28;20476;-40
2021/11/15 03:43:29;;;;;;;65.15;25.88;;;;;;;8.71;78.69;102667.50;5044078;28;20043;-40
2021/11/15 03:45:55;;;;;;;57.20;23.77;;;;;;;8.72;77.75;102663.88;5060123;28;20025;-39
2021/11/15 03:48:23;;;;;;;51.47;22.38;;;;;;;8.75;76.47;102668.13;5033350;28;20027;-40
2021/11/15 03:50:54;;;;;;;49.88;20.80;;;;;;;8.69;77.05;102668.59;5052063;28;20025;-40
2021/11/15 03:53:20;;;;;;;54.65;22.20;;;;;;;8.65;76.89;102672.53;5052118;28;20040;-40
2021/11/15 03:55:46;;;;;;;43.75;20.15;;;;;;;8.65;76.05;102668.03;5051888;28;20100;-40
2021/11/15 03:58:11;;;;;;;44.58;18.40;;;;;;;8.63;76.16;102669.97;5036671;28;20026;-41
2021/11/15 04:00:39;;;;;;;43.65;19.52;;;;;;;8.63;76.18;102659.22;5048582;28;20701;-40
2021/11/15 04:03:08;;;;;;;;;;;;;;;8.65;76.26;102667.16;5052778;28;20392;-40
2021/11/15 04:05:37;;;;;;;43.47;18.70;;;;;;;8.61;76.75;102668.38;5043690;28;19912;-40
2021/11/15 04:08:05;;;;;;;43.50;18.73;;;;;;;8.63;75.69;102666.44;5044024;28;20029;-41
2021/11/15 04:10:38;;;;;;;47.65;18.92;;;;;;;8.62;75.89;102672.78;5053727;28;20032;-40
2021/11/15 04:13:17;;;;;;;55.28;20.20;;;;;;;8.59;75.95;102668.53;5037664;28;20029;-40
2021/11/15 04:15:44;;;;;;;49.40;19.38;;;;;;;8.54;75.92;102676.94;5033595;28;20049;-40
2021/11/15 04:18:12;;;;;;;47.42;18.98;;;;;;;8.58;75.71;102672.16;5037732;28;20060;-40
2021/11/15 04:20:38;;;;;;;43.83;18.35;;;;;;;8.57;76.29;102676.69;5051742;28;20021;-40
2021/11/15 04:23:03;;;;;;;45.60;19.98;;;;;;;8.59;76.37;102673.91;5042096;28;20472;-40
2021/11/15 04:25:29;;;;;;;46.13;19.27;;;;;;;8.50;76.59;102659.38;5031600;28;20104;-40
2021/11/15 04:27:55;;;;;;;44.30;18.67;;;;;;;8.52;77.26;102672.66;5038430;28;20041;-40
2021/11/15 04:30:20;;;;;;;48.67;20.50;;;;;;;8.57;76.58;102671.31;5032056;28;20533;-40
2021/11/15 04:32:45;;;;;;;44.42;20.48;;;;;;;8.52;77.17;102672.66;5031709;28;20120;-40
2021/11/15 04:35:14;;;;;;;46.78;20.80;;;;;;;8.55;77.43;102672.41;5046135;28;20025;-40
2021/11/15 04:37:39;;;;;;;52.45;22.13;;;;;;;8.53;77.36;102669.88;5042008;28;20037;-40
2021/11/15 04:40:07;;;;;;;54.58;22.55;;;;;;;8.54;77.94;102676.94;5035363;28;20041;-40
2021/11/15 04:42:33;;;;;;;58.60;22.60;;;;;;;8.54;78.31;102666.22;5042055;28;20036;-41
2021/11/15 04:44:59;;;;;;;58.40;21.77;;;;;;;8.54;77.76;102666.22;5034969;28;20030;-40
2021/11/15 04:47:24;;;;;;;57.50;21.17;;;;;;;8.46;78.50;102665.97;5034608;28;20036;-40
2021/11/15 04:49:50;;;;;;;54.90;22.08;;;;;;;8.41;79.19;102665.50;5035824;28;20099;-40
2021/11/15 04:52:16;;;;;;;56.40;22.67;;;;;;;8.40;79.71;102673.66;5049779;28;20112;-41
2021/11/15 04:54:41;;;;;;;54.83;22.45;;;;;;;8.42;79.58;102667.19;5054674;28;20033;-41
2021/11/15 04:57:07;;;;;;;56.40;22.55;;;;;;;8.39;80.22;102667.44;5047921;28;20025;-41
2021/11/15 04:59:32;;;;;;;67.03;23.45;;;;;;;8.47;79.67;102675.72;5035119;28;20035;-41
2021/11/15 05:01:57;;;;;;;49.97;21.08;;;;;;;8.52;79.60;102681.56;5034629;28;20032;-40
2021/11/15 05:04:23;;;;;;;59.05;22.35;;;;;;;8.59;79.65;102673.03;5034781;28;20514;-40
2021/11/15 05:06:48;;;;;;;61.42;22.08;;;;;;;8.60;79.88;102669.38;5045060;28;20434;-41
2021/11/15 05:09:14;;;;;;;57.05;22.10;;;;;;;8.68;78.44;102666.91;5036907;28;20561;-41
2021/11/15 05:11:40;;;;;;;53.70;21.05;;;;;;;8.60;79.27;102664.00;5053974;28;20040;-40
2021/11/15 05:14:05;;;;;;;53.15;21.58;;;;;;;8.63;79.16;102667.28;5054564;28;20083;-41
2021/11/15 05:16:32;;;;;;;64.45;24.48;;;;;;;8.61;79.65;102660.34;5047400;28;20101;-41
2021/11/15 05:18:58;;;;;;;69.45;24.65;;;;;;;8.59;80.13;102668.53;5048437;28;20029;-41
2021/11/15 05:21:23;;;;;;;67.93;24.70;;;;;;;8.55;80.49;102657.16;5052763;28;20033;-40
2021/11/15 05:23:52;;;;;;;63.80;24.73;;;;;;;8.52;80.65;102662.78;5054369;28;20035;-40
2021/11/15 05:26:17;;;;;;;64.55;24.23;;;;;;;8.48;81.47;102669.41;5054547;28;20496;-41
2021/11/15 05:28:43;;;;;;;57.33;22.63;;;;;;;8.48;81.80;102672.09;5055832;28;20029;-40
2021/11/15 05:31:09;;;;;;;61.08;25.25;;;;;;;8.46;81.97;102668.66;5050366;28;20021;-38
2021/11/15 05:33:34;;;;;;;58.03;22.50;;;;;;;8.48;81.27;102680.13;5049969;28;20056;-40
2021/11/15 05:36:00;;;;;;;58.05;23.38;;;;;;;8.44;81.50;102678.66;5046719;28;20033;-40
2021/11/15 05:38:25;;;;;;;60.53;23.50;;;;;;;8.38;81.57;102671.06;5034649;28;20056;-41
2021/11/15 05:40:50;;;;;;;60.70;22.70;;;;;;;8.31;81.89;102675.22;5033298;28;20460;-40
2021/11/15 05:43:16;;;;;;;57.15;22.90;;;;;;;8.28;81.70;102676.31;5034364;28;20421;-40
2021/11/15 05:45:41;;;;;;;56.45;21.63;;;;;;;8.28;82.40;102683.50;5036400;28;20029;-39
2021/11/15 05:48:06;;;;;;;53.30;20.65;;;;;;;8.24;81.76;102680.22;5047294;28;20035;-39
2021/11/15 05:50:32;;;;;;;53.97;22.17;;;;;;;8.26;81.73;102680.94;5054139;28;20108;-40
2021/11/15 05:52:58;;;;;;;53.08;21.25;;;;;;;8.29;81.93;102682.53;5054018;28;20031;-41
2021/11/15 05:55:24;;;;;;;48.60;20.55;;;;;;;8.29;81.25;102677.16;5036511;28;20024;-40
2021/11/15 05:57:50;;;;;;;52.03;21.20;;;;;;;8.27;81.35;102679.13;5034258;28;20029;-41
2021/11/15 06:00:19;;;;;;;52.33;19.70;;;;;;;8.29;81.06;102677.16;5034064;28;20025;-40
2021/11/15 06:02:44;;;;;;;51.85;19.25;;;;;;;8.25;80.70;102675.72;5033926;28;20056;-40
2021/11/15 06:05:11;;;;;;;42.33;18.27;;;;;;;8.29;81.01;102674.47;5033388;28;20030;-40
2021/11/15 06:07:36;;;;;;;43.67;18.33;;;;;;;8.30;80.65;102695.81;5051693;28;20870;-41
2021/11/15 06:10:03;;;;;;;49.83;19.63;;;;;;;8.29;80.41;102680.72;5035873;28;20029;-40
2021/11/15 06:12:28;;;;;;;40.92;18.08;;;;;;;8.32;80.07;102684.97;5033484;28;20041;-39
2021/11/15 06:14:53;;;;;;;42.80;17.55;;;;;;;8.28;80.02;102681.69;5033728;28;20395;-41
2021/11/15 06:17:19;;;;;;;48.80;18.98;;;;;;;8.24;79.45;102695.44;5044317;28;20399;-40
2021/11/15 06:19:44;;;;;;;42.40;18.08;;;;;;;8.24;79.91;102690.06;5048010;28;20498;-41
2021/11/15 06:22:09;;;;;;;37.25;17.67;;;;;;;8.27;79.63;102695.22;5052569;28;20426;-40
2021/11/15 06:24:35;;;;;;;46.13;18.55;;;;;;;8.27;80.33;102696.06;5053563;28;20036;-41
2021/11/15 06:27:01;;;;;;;45.88;19.92;;;;;;;8.21;80.02;102701.91;5052823;28;20439;-42
2021/11/15 06:29:27;;;;;;;43.45;19.20;;;;;;;8.22;79.96;102697.41;5040709;28;20025;-41
2021/11/15 06:31:54;;;;;;;48.50;19.25;;;;;;;8.19;80.62;102703.00;5033322;28;20036;-40
2021/11/15 06:34:19;;;;;;;47.08;20.13;;;;;;;8.21;80.36;102695.69;5033301;28;20438;-40
2021/11/15 06:36:44;;;;;;;41.88;19.85;;;;;;;8.23;80.17;102693.75;5041682;28;20061;-41
2021/11/15 06:39:10;;;;;;;45.92;19.17;;;;;;;8.23;79.81;102683.88;5052515;28;20067;-40
2021/11/15 06:41:37;;;;;;;44.78;20.10;;;;;;;8.19;80.73;102693.16;5053411;28;20052;-40
2021/11/15 06:44:03;;;;;;;46.10;19.87;;;;;;;8.19;80.55;102689.59;5046804;28;20017;-40
2021/11/15 06:46:28;;;;;;;47.15;18.83;;;;;;;8.18;80.71;102695.94;5040995;28;20292;-39
2021/11/15 06:48:54;;;;;;;45.58;20.52;;;;;;;8.19;80.67;102686.91;5044274;28;20053;-40
2021/11/15 06:51:20;;;;;;;46.78;20.50;;;;;;;8.18;80.28;102695.94;5032513;28;20028;-40
2021/11/15 06:53:46;;;;;;;49.15;21.27;;;;;;;8.16;80.20;102692.50;5049758;28;20063;-40
2021/11/15 06:56:11;;;;;;;52.35;21.83;;;;;;;8.12;80.63;102682.03;5064756;28;20040;-41
2021/11/15 06:58:37;;;;;;;43.92;20.35;;;;;;;8.13;80.14;102688.25;5048967;28;20029;-41
2021/11/15 07:01:03;;;;;;;46.63;20.52;;;;;;;8.14;80.55;102693.50;5046854;28;20111;-40
2021/11/15 07:03:28;;;;;;;52.72;22.98;;;;;;;8.12;80.00;102702.66;5042993;28;20065;-39
2021/11/15 07:05:54;;;;;;;51.05;22.30;;;;;;;8.17;79.14;102702.28;5032345;28;20040;-40
2021/11/15 07:08:19;;;;;;;45.28;20.42;;;;;;;8.18;79.11;102712.03;5038264;28;20018;-41
2021/11/15 07:10:44;;;;;;;44.97;21.05;;;;;;;8.17;79.86;102718.38;5043230;28;20036;-41
2021/11/15 07:13:12;;;;;;;45.88;21.13;;;;;;;8.17;79.88;102721.91;5057969;28;20028;-41
2021/11/15 07:15:38;;;;;;;49.53;21.10;;;;;;;8.22;79.63;102721.56;5051670;28;20439;-41
2021/11/15 07:18:03;;;;;;;46.80;21.25;;;;;;;8.13;79.56;102726.63;5033985;28;20160;-40
2021/11/15 07:20:28;;;;;;;46.03;20.83;;;;;;;8.22;79.50;102724.25;5051917;28;20061;-39
2021/11/15 07:22:54;;;;;;;45.58;20.80;;;;;;;8.22;79.36;102734.97;5052056;28;20104;-40
2021/11/15 07:25:20;;;;;;;48.40;21.60;;;;;;;8.18;79.88;102728.13;5050221;28;20133;-40
2021/11/15 07:27:47;;;;;;;50.70;21.38;;;;;;;8.19;79.77;102735.19;5038283;28;20389;-40
2021/11/15 07:30:13;;;;;;;50.78;21.30;;;;;;;8.18;79.73;102738.84;5031653;28;20048;-40
2021/11/15 07:32:39;;;;;;;48.67;20.95;;;;;;;8.18;79.21;102736.16;5030968;28;20065;-41
2021/11/15 07:35:05;;;;;;;49.63;22.55;;;;;;;8.17;79.54;102737.16;5031851;28;20079;-41
2021/11/15 07:37:31;;;;;;;50.83;20.80;;;;;;;8.16;79.49;102741.63;5038680;28;20343;-40
2021/11/15 07:39:56;;;;;;;47.72;21.25;;;;;;;8.15;79.61;102734.59;5071957;28;20031;-40
2021/11/15 07:42:21;;;;;;;50.35;21.33;;;;;;;8.12;80.36;102734.81;5070216;28;20094;-41
2021/11/15 07:44:48;;;;;;;46.13;21.40;;;;;;;8.06;80.10;102736.16;5057237;28;20033;-40
2021/11/15 07:47:16;;;;;;;46.30;21.13;;;;;;;8.05;80.46;102729.06;5041471;28;20029;-40
2021/11/15 07:49:42;;;;;;;50.45;21.30;;;;;;;8.06;80.57;102735.31;5049993;28;20029;-39
2021/11/15 07:52:08;;;;;;;48.30;20.35;;;;;;;8.10;80.75;102736.75;5036861;28;20052;-40
2021/11/15 07:54:34;;;;;;;46.75;20.90;;;;;;;8.13;80.31;102733.84;5041826;28;20074;-40
2021/11/15 07:56:59;;;;;;;50.90;22.42;;;;;;;8.09;80.35;102729.72;5049470;28;20036;-41
2021/11/15 07:59:24;;;;;;;47.00;21.95;;;;;;;8.06;80.00;102722.75;5044178;28;20055;-40
2021/11/15 08:01:50;;;;;;;46.25;21.00;;;;;;;8.03;80.86;102731.03;5040577;28;20419;-40
2021/11/15 08:04:16;;;;;;;49.33;22.38;;;;;;;8.04;80.63;102727.38;5031446;28;20030;-40
2021/11/15 08:06:41;;;;;;;43.85;21.45;;;;;;;8.06;80.93;102719.22;5032278;28;20029;-41
2021/11/15 08:09:07;;;;;;;52.50;21.85;;;;;;;8.07;80.85;102720.91;5039503;28;20112;-41
2021/11/15 08:11:32;;;;;;;47.72;22.02;;;;;;;8.10;80.32;102724.19;5054282;28;20032;-40
2021/11/15 08:13:58;;;;;;;44.45;20.80;;;;;;;8.17;80.14;102723.75;5050188;28;20032;-40
2021/11/15 08:16:24;;;;;;;45.97;20.92;;;;;;;8.18;80.09;102728.97;5052304;28;20397;-41
2021/11/15 08:18:49;;;;;;;43.50;20.90;;;;;;;8.19;79.87;102724.44;5054083;28;20024;-40
2021/11/15 08:21:15;;;;;;;48.38;21.80;;;;;;;8.22;79.76;102721.56;5043282;28;20026;-40
2021/11/15 08:23:42;;;;;;;43.00;20.88;;;;;;;8.20;79.35;102726.19;5048999;28;20040;-41
2021/11/15 08:26:29;;;;;;;47.03;19.95;;;;;;;8.19;79.41;102719.09;5034107;28;20438;-41
2021/11/15 08:29:09;;;;;;;50.40;24.03;;;;;;;8.11;79.41;102709.84;5040018;28;20083;-40
2021/11/15 08:31:36;;;;;;;45.70;21.50;;;;;;;8.10;80.08;102716.16;5035128;28;20112;-41
2021/11/15 08:34:02;;;;;;;47.90;22.58;;;;;;;8.15;79.51;102713.13;5054292;28;20146;-41
2021/11/15 08:36:28;;;;;;;49.25;22.90;;;;;;;8.09;80.36;102711.78;5046845;28;20060;-41
2021/11/15 08:39:05;;;;;;;49.72;21.10;;;;;;;8.12;80.09;102718.72;5053591;28;20048;-41
2021/11/15 08:41:33;;;;;;;48.87;22.47;;;;;;;8.06;80.38;102712.03;5050841;28;20075;-41
2021/11/15 08:44:00;;;;;;;44.88;20.67;;;;;;;8.13;80.22;102723.97;5035171;28;20284;-41
2021/11/15 08:46:30;;;;;;;48.90;22.15;;;;;;;8.11;80.70;102720.56;5037666;28;20119;-41
2021/11/15 08:48:57;;;;;;;45.95;21.75;;;;;;;8.14;80.51;102714.97;5047808;28;20102;-40
2021/11/15 08:51:22;;;;;;;51.07;22.97;;;;;;;8.16;80.43;102717.50;5050208;28;20032;-41
2021/11/15 08:53:49;;;;;;;52.85;21.98;;;;;;;8.22;80.34;102710.84;5049435;28;20116;-41
2021/11/15 08:56:15;;;;;;;48.08;22.13;;;;;;;8.13;80.07;102718.59;5043590;28;20024;-40
2021/11/15 08:58:41;;;;;;;44.33;20.98;;;;;;;8.08;80.25;102715.44;5047340;28;20068;-40
2021/11/15 09:01:08;;;;;;;48.17;21.67;;;;;;;8.13;80.71;102715.06;5061550;28;20483;-41
2021/11/15 09:03:37;;;;;;;50.75;21.85;;;;;;;8.12;79.96;102708.84;5051678;28;20028;-42
2021/11/15 09:06:03;;;;;;;47.65;22.42;;;;;;;8.11;80.07;102712.53;5068582;28;20105;-42
2021/11/15 09:08:28;;;;;;;42.25;20.88;;;;;;;8.04;80.33;102708.59;5038057;28;20492;-39
2021/11/15 09:10:53;;;;;;;41.45;21.83;;;;;;;8.05;80.57;102712.97;5032960;28;20473;-41
2021/11/15 09:13:19;;;;;;;44.10;20.63;;;;;;;8.06;80.72;102709.34;5034299;28;20021;-41
2021/11/15 09:15:44;;;;;;;43.75;21.77;;;;;;;8.12;80.23;102710.69;5042879;28;20048;-41
2021/11/15 09:18:10;;;;;;;49.30;23.60;;;;;;;8.13;80.05;102704.34;5050820;28;20475;-41
2021/11/15 09:20:35;;;;;;;43.25;21.77;;;;;;;8.13;79.99;102698.97;5053265;28;20400;-41
2021/11/15 09:23:01;;;;;;;49.15;22.73;;;;;;;8.07;80.63;102696.78;5054027;28;20021;-41
2021/11/15 09:25:26;;;;;;;48.58;22.13;;;;;;;8.08;81.23;102701.16;5053635;28;20098;-41
2021/11/15 09:27:52;;;;;;;45.63;21.50;;;;;;;8.04;81.42;102705.91;5054046;28;20032;-42
2021/11/15 09:30:17;;;;;;;49.20;22.95;;;;;;;8.13;80.87;102707.88;5042366;28;20036;-41
2021/11/15 09:32:43;;;;;;;45.95;21.52;;;;;;;8.13;80.96;102704.34;5034620;28;20034;-41
2021/11/15 09:35:09;;;;;;;42.15;21.23;;;;;;;8.10;80.78;102702.75;5040132;28;20068;-41
2021/11/15 09:37:34;;;;;;;48.47;22.17;;;;;;;8.16;81.15;102696.03;5051820;28;20074;-41
2021/11/15 09:40:00;;;;;;;45.45;22.33;;;;;;;8.18;80.15;102703.97;5043868;28;20488;-41
2021/11/15 09:42:26;;;;;;;40.65;20.02;;;;;;;8.24;80.40;102706.16;5044708;28;20472;-41
2021/11/15 09:44:51;;;;;;;46.90;21.10;;;;;;;8.20;80.47;102694.00;5038696;28;20033;-40
2021/11/15 09:47:17;;;;;;;42.38;21.55;;;;;;;8.20;79.87;102694.00;5042001;28;20026;-41
2021/11/15 09:49:43;;;;;;;39.08;20.38;;;;;;;8.14;80.05;102689.97;5039498;28;20427;-40
2021/11/15 09:52:09;;;;;;;39.03;21.00;;;;;;;8.12;80.61;102692.75;5033527;28;20038;-41
2021/11/15 09:54:35;;;;;;;44.63;20.85;;;;;;;8.14;80.59;102706.91;5050087;28;20029;-40
2021/11/15 09:57:01;;;;;;;45.17;20.40;;;;;;;8.20;80.89;102694.00;5051984;28;20116;-40
2021/11/15 09:59:29;;;;;;;46.85;22.23;;;;;;;8.21;79.82;102701.91;5051486;28;20113;-40
2021/11/15 10:01:56;;;;;;;44.83;22.20;;;;;;;8.20;80.21;102699.38;5053515;28;20094;-41
2021/11/15 10:04:22;;;;;;;46.75;22.05;;;;;;;8.21;80.41;102706.41;5050028;28;20129;-41
2021/11/15 10:06:52;;;;;;;44.92;21.10;;;;;;;8.21;79.84;102718.00;5039343;28;20056;-41
2021/11/15 10:09:29;;;;;;;43.60;21.73;;;;;;;8.22;79.15;102708.16;5031788;28;20091;-41
2021/11/15 10:11:55;;;;;;;45.03;21.50;;;;;;;8.20;79.80;102720.81;5033224;28;20085;-41
2021/11/15 10:14:21;;;;;;;41.10;20.25;;;;;;;8.16;79.99;102713.97;5041447;28;20086;-40
2021/11/15 10:16:52;;;;;;;43.17;20.30;;;;;;;8.18;79.19;102704.84;5037740;28;20033;-40
2021/11/15 10:19:20;;;;;;;49.88;20.77;;;;;;;8.14;79.12;102695.34;5038974;28;20037;-41
2021/11/15 10:21:47;;;;;;;47.30;20.20;;;;;;;8.12;79.53;102684.72;5051078;28;20381;-41
2021/11/15 10:24:16;;;;;;;48.58;21.23;;;;;;;8.09;79.77;102690.31;5052693;28;20464;-41
2021/11/15 10:26:55;;;;;;;48.22;20.52;;;;;;;8.06;80.63;102684.34;5040862;28;20069;-41
2021/11/15 10:29:53;;;;;;;45.72;21.02;;;;;;;8.12;80.30;102692.75;5050137;28;20095;-41
2021/11/15 10:32:22;;;;;;;45.88;20.90;;;;;;;8.14;80.25;102698.88;5031210;28;20128;-41
2021/11/15 10:34:53;;;;;;;49.90;22.27;;;;;;;8.13;79.97;102691.78;5032934;28;20022;-40
2021/11/15 10:37:23;;;;;;;49.45;23.02;;;;;;;8.11;79.87;102685.69;5039642;28;20036;-40
2021/11/15 10:39:55;;;;;;;47.58;21.52;;;;;;;8.13;79.90;102683.72;5052808;28;20036;-40
2021/11/15 10:42:28;;;;;;;58.72;25.73;;;;;;;8.13;80.14;102694.47;5052012;28;20028;-40
2021/11/15 10:45:06;;;;;;;53.25;23.35;;;;;;;8.07;80.25;102689.59;5035270;28;20025;-40
2021/11/15 10:47:40;;;;;;;52.53;22.90;;;;;;;8.04;80.84;102699.72;5044705;28;20399;-41
2021/11/15 10:50:17;;;;;;;45.40;20.85;;;;;;;8.05;80.61;102691.53;5040454;28;20029;-41
2021/11/15 10:52:57;;;;;;;50.25;22.88;;;;;;;8.09;80.86;102690.31;5032847;28;20105;-41
2021/11/15 10:55:22;;;;;;;54.63;23.17;;;;;;;8.09;80.93;102686.78;5034022;28;20029;-40
2021/11/15 10:57:50;;;;;;;52.22;23.17;;;;;;;8.07;81.50;102678.84;5035735;28;20040;-39
2021/11/15 11:00:22;;;;;;;50.88;23.13;;;;;;;8.13;80.54;102675.69;5049555;28;20044;-41
2021/11/15 11:02:54;;;;;;;49.65;22.85;;;;;;;8.18;80.56;102671.78;5044029;28;20021;-41
2021/11/15 11:05:25;;;;;;;62.65;26.90;;;;;;;8.17;80.07;102668.28;5032467;28;20392;-41
2021/11/15 11:08:18;;;;;;;56.67;25.38;;;;;;;8.16;80.26;102668.38;5032141;28;20032;-41
2021/11/15 11:11:08;;;;;;;52.15;24.60;;;;;;;8.17;80.84;102664.75;5042049;28;20032;-41
2021/11/15 11:13:39;;;;;;;54.80;23.75;;;;;;;8.20;80.96;102665.34;5041778;28;20457;-41
2021/11/15 11:16:05;;;;;;;52.95;22.58;;;;;;;8.18;80.77;102663.75;5045219;28;20040;-39